Yachats, OR (97498)

8:05 PM PDT on August 26, 2016 (GMT -0700)
| | Change Station

Elev -9999 ft 0.00 °N, 0.00 °E | Updated

Clear
Clear
58 °F
Feels Like 58 °F
N
4
Wind Variable Wind from SW
Gusts mph

Today
High -- | Low -- °F
--% Chance of Precip.
Yesterday
High -- | Low -- °F
Precip. -- in
Pressure 29.95 in
Visibility 3.0 miles
Clouds Overcast 300 ft
Dew Point 53 °F
Humidity 83%
Rainfall --
Snow Depth Not available.
6:32 AM 8:02 PM
Waning Crescent, 28% visible
METAR KONP 270255Z AUTO 19009KT 3SM BR OVC003 12/11 A2995 RMK AO2
Pressure 29.95 in
Visibility 3.0 miles
Clouds Overcast 300 ft
Dew Point 53 °F
Humidity 83%
Rainfall --
Snow Depth Not available.
6:32 AM 8:02 PM
Waning Crescent, 28% visible
METAR KONP 270255Z AUTO 19009KT 3SM BR OVC003 12/11 A2995 RMK AO2

10-Day Weather Forecast

Almanac

Astronomy

Aug. 26, 2016 Rise Set
Actual Time
Civil Twilight
Nautical Twilight
Astronomical Twilight
Moon
Length of Visible Light
Length of Day
Tomorrow will be .
, % of the Moon is Illuminated

Today's Extremes

State Highs State Lows

Community

WunderPhotos

Upload Photos

1,935,281 photos uploaded!

WunderBlog® & News

Nearby

Air Quality

  Air Quality AQ Index Pollutant
Not available.

Snow Depth

Station Depth Elevation

Earthquake Activity

City Distance Mag. Time & Date
Minimum magnitude displayed is 2.5.

Coastal Water Temperatures

Place Temperature

Stations

Nearby Weather Stations

Station Location Temp. Windchill Dew Point Humidity Wind Precip. Elev Updated Type
                   

Watches & Warnings

There are currently no watches in effect.